Time;durP1;ratioP1;P1;durP2;ratioP2;P2;SDS_P1;SDS_P2;PMS_P1;PMS_P2;Temp;Humidity;BMP_temperature;BMP_pressure;BME280_temperature;BME280_humidity;BME280_pressure;Samples;Min_cycle;Max_cycle;Signal;HPM_P1;HPM_P2
2021/07/13 00:04:00;;;;;;;;;32.67;32.00;;;;;;;;8825194;40;10062;-63
2021/07/13 00:10:27;;;;;;;;;34.67;31.33;;;;;;;;8825656;40;10537;-62
2021/07/13 00:16:29;;;;;;;;;28.33;28.33;;;;;;;;8825560;40;10481;-63
2021/07/13 00:22:31;;;;;;;;;32.25;31.75;;;;;;;;8826131;40;10758;-63
2021/07/13 00:28:33;;;;;;;;;29.67;28.67;;;;;;;;8824136;40;10407;-63
2021/07/13 00:34:35;;;;;;;;;32.50;30.00;;;;;;;;8826023;40;10879;-63
2021/07/13 00:40:37;;;;;;;;;33.33;30.67;;;;;;;;8824610;40;10721;-62
2021/07/13 00:46:45;;;;;;;;;34.00;34.00;;;;;;;;8823849;40;10418;-63
2021/07/13 00:52:48;;;;;;;;;29.75;27.25;;;;;;;;8825556;40;11232;-63
2021/07/13 00:58:50;;;;;;;;;43.00;37.67;;;;;;;;8824289;40;10406;-63
2021/07/13 01:05:00;;;;;;;;;36.33;32.33;;;;;;;;8824808;40;10216;-63
2021/07/13 01:11:16;;;;;;;;;31.00;29.67;;;;;;;;8824729;40;11233;-63
2021/07/13 01:17:25;;;;;;;;;37.67;34.67;;;;;;;;8825424;40;10359;-62
2021/07/13 01:23:50;;;;;;;;;29.33;27.67;;;;;;;;8824206;40;10238;-62
2021/07/13 01:29:56;;;;;;;;;33.67;30.67;;;;;;;;8822813;40;10202;-63
2021/07/13 01:36:08;;;;;;;;;29.00;27.33;;;;;;;;8824605;40;10935;-62
2021/07/13 01:42:11;;;;;;;;;32.67;30.33;;;;;;;;8823580;40;10092;-63
2021/07/13 01:48:13;;;;;;;;;33.00;31.33;;;;;;;;8823610;40;10115;-63
2021/07/13 01:54:17;;;;;;;;;35.33;32.67;;;;;;;;8822390;40;10003;-63
2021/07/13 02:00:19;;;;;;;;;32.67;30.67;;;;;;;;8822686;40;10422;-63
2021/07/13 02:06:24;;;;;;;;;42.33;31.33;;;;;;;;8823571;40;9933;-62
2021/07/13 02:12:26;;;;;;;;;37.00;33.67;;;;;;;;8813296;40;9886;-63
2021/07/13 02:18:28;;;;;;;;;33.67;31.33;;;;;;;;8822943;40;10315;-62
2021/07/13 02:24:30;;;;;;;;;32.67;29.67;;;;;;;;8823003;40;9812;-62
2021/07/13 02:30:34;;;;;;;;;33.67;32.00;;;;;;;;8823376;40;11586;-62
2021/07/13 02:36:42;;;;;;;;;33.67;31.33;;;;;;;;8822780;40;9846;-62
2021/07/13 02:42:46;;;;;;;;;34.67;33.00;;;;;;;;8823625;40;9876;-63
2021/07/13 02:48:50;;;;;;;;;31.33;30.67;;;;;;;;8828289;40;9874;-63
2021/07/13 02:54:56;;;;;;;;;37.67;33.67;;;;;;;;8825762;40;10469;-63
2021/07/13 03:00:59;;;;;;;;;32.33;30.67;;;;;;;;8814469;40;9841;-63
2021/07/13 03:07:02;;;;;;;;;35.33;34.67;;;;;;;;8826659;40;9896;-62
2021/07/13 03:13:05;;;;;;;;;35.00;32.00;;;;;;;;8825634;40;10953;-63
2021/07/13 03:19:08;;;;;;;;;36.00;31.67;;;;;;;;8825862;40;10535;-62
2021/07/13 03:25:15;;;;;;;;;33.33;31.00;;;;;;;;8825077;40;9992;-62
2021/07/13 03:31:18;;;;;;;;;34.00;33.00;;;;;;;;8826568;40;9968;-63
2021/07/13 03:37:20;;;;;;;;;39.67;33.67;;;;;;;;8826353;40;10404;-64
2021/07/13 03:43:26;;;;;;;;;37.33;35.33;;;;;;;;8826091;40;11243;-63
2021/07/13 03:49:29;;;;;;;;;37.33;34.67;;;;;;;;8825914;40;9906;-63
2021/07/13 03:55:31;;;;;;;;;41.67;38.00;;;;;;;;8824410;40;9867;-64
2021/07/13 04:07:58;;;;;;;;;38.00;34.75;;;;;;;;8715098;40;11193;-65
2021/07/13 04:14:00;;;;;;;;;32.75;32.75;;;;;;;;8708788;40;11097;-64
2021/07/13 04:20:05;;;;;;;;;36.67;33.33;;;;;;;;8727542;40;10548;-64
2021/07/13 04:26:07;;;;;;;;;33.75;31.00;;;;;;;;8705207;41;11039;-64
2021/07/13 04:32:09;;;;;;;;;38.67;37.33;;;;;;;;8705342;41;10864;-65
2021/07/13 04:38:12;;;;;;;;;31.75;31.75;;;;;;;;8713121;40;10911;-66
2021/07/13 04:44:14;;;;;;;;;38.50;35.00;;;;;;;;8729756;40;10927;-64
2021/07/13 04:50:16;;;;;;;;;32.00;30.50;;;;;;;;8729155;40;10914;-64
2021/07/13 04:56:19;;;;;;;;;33.25;30.25;;;;;;;;8728832;40;10993;-65
2021/07/13 05:02:21;;;;;;;;;34.75;30.50;;;;;;;;8729146;40;10870;-65
2021/07/13 05:08:23;;;;;;;;;32.50;30.50;;;;;;;;6914073;40;10003207;-65
2021/07/13 05:14:25;;;;;;;;;29.25;29.00;;;;;;;;8737081;40;11908;-66
2021/07/13 05:20:27;;;;;;;;;34.50;34.25;;;;;;;;8730673;40;10747;-64
2021/07/13 05:26:29;;;;;;;;;38.00;35.50;;;;;;;;8745047;40;10810;-65
2021/07/13 05:32:31;;;;;;;;;38.50;32.75;;;;;;;;8750897;40;11468;-66
2021/07/13 05:38:33;;;;;;;;;31.25;29.75;;;;;;;;8752887;40;11318;-65
2021/07/13 05:44:35;;;;;;;;;39.25;36.25;;;;;;;;8732580;40;11202;-64
2021/07/13 05:50:37;;;;;;;;;41.00;35.50;;;;;;;;8723328;40;11667;-65
2021/07/13 05:56:39;;;;;;;;;34.00;33.75;;;;;;;;8726829;40;10952;-64
2021/07/13 06:02:41;;;;;;;;;40.25;35.50;;;;;;;;8726763;40;10913;-65
2021/07/13 06:08:43;;;;;;;;;43.25;37.50;;;;;;;;8733336;40;10519;-66
2021/07/13 06:14:45;;;;;;;;;33.25;31.75;;;;;;;;8746060;40;10462;-64
2021/07/13 06:20:55;;;;;;;;;36.75;34.50;;;;;;;;8736166;40;10464;-65
2021/07/13 06:26:57;;;;;;;;;37.75;35.75;;;;;;;;8748166;40;10466;-67
2021/07/13 06:32:59;;;;;;;;;37.75;34.25;;;;;;;;8743221;40;10515;-66
2021/07/13 06:39:01;;;;;;;;;28.50;27.75;;;;;;;;8749507;40;10710;-66
2021/07/13 06:45:03;;;;;;;;;37.25;34.25;;;;;;;;8748528;40;11290;-68
2021/07/13 06:51:06;;;;;;;;;29.75;28.25;;;;;;;;8739638;40;10670;-65
2021/07/13 06:57:08;;;;;;;;;37.00;35.25;;;;;;;;8744175;40;11143;-65
2021/07/13 07:03:10;;;;;;;;;33.00;30.00;;;;;;;;8742064;40;10511;-66
2021/07/13 07:09:12;;;;;;;;;45.00;37.75;;;;;;;;8741710;40;10509;-65
2021/07/13 07:15:16;;;;;;;;;35.00;32.00;;;;;;;;8742064;40;10499;-66
2021/07/13 07:21:18;;;;;;;;;36.00;35.50;;;;;;;;8743120;40;10623;-66
2021/07/13 07:27:20;;;;;;;;;34.00;28.75;;;;;;;;8721063;40;10515;-67
2021/07/13 07:33:22;;;;;;;;;36.00;34.00;;;;;;;;8733710;40;10443;-69
2021/07/13 07:39:24;;;;;;;;;39.75;37.25;;;;;;;;8743257;40;10561;-67
2021/07/13 07:45:27;;;;;;;;;39.25;32.75;;;;;;;;8740912;40;10522;-66
2021/07/13 07:51:29;;;;;;;;;35.75;32.75;;;;;;;;8743834;40;10468;-67
2021/07/13 07:57:32;;;;;;;;;37.25;31.25;;;;;;;;8731899;40;10422;-68
2021/07/13 08:03:36;;;;;;;;;36.25;32.50;;;;;;;;8740073;40;10744;-67
2021/07/13 08:09:38;;;;;;;;;30.75;30.50;;;;;;;;8740976;40;10481;-70
2021/07/13 08:15:40;;;;;;;;;31.75;31.25;;;;;;;;8733060;40;10629;-69
2021/07/13 08:21:42;;;;;;;;;32.50;31.00;;;;;;;;8736773;40;12080;-66
2021/07/13 08:27:45;;;;;;;;;29.25;27.75;;;;;;;;8738844;40;11106;-68
2021/07/13 08:33:47;;;;;;;;;24.75;24.00;;;;;;;;8737908;40;10493;-68
2021/07/13 08:39:49;;;;;;;;;31.50;31.50;;;;;;;;8729771;40;10705;-67
2021/07/13 08:45:52;;;;;;;;;36.50;33.75;;;;;;;;8736915;40;10523;-69
2021/07/13 08:51:55;;;;;;;;;29.50;29.00;;;;;;;;8736539;40;10473;-67
2021/07/13 08:57:57;;;;;;;;;33.75;31.00;;;;;;;;8740355;40;11149;-69
2021/07/13 09:04:04;;;;;;;;;34.75;33.00;;;;;;;;8739246;40;10614;-68
2021/07/13 09:10:06;;;;;;;;;35.50;33.50;;;;;;;;8736237;40;10521;-70
2021/07/13 09:16:11;;;;;;;;;31.25;31.25;;;;;;;;8742671;40;10365;-67
2021/07/13 09:22:28;;;;;;;;;33.00;30.50;;;;;;;;8744742;40;10609;-69
2021/07/13 09:28:31;;;;;;;;;37.25;35.50;;;;;;;;8739550;40;10438;-69
2021/07/13 09:34:34;;;;;;;;;31.75;31.00;;;;;;;;8744588;40;10529;-70
2021/07/13 09:40:37;;;;;;;;;37.00;32.75;;;;;;;;8733946;40;10929;-67
2021/07/13 09:46:46;;;;;;;;;35.50;33.00;;;;;;;;8743921;40;10535;-69
2021/07/13 09:52:57;;;;;;;;;31.25;30.50;;;;;;;;8743278;40;11044;-68
2021/07/13 09:59:00;;;;;;;;;39.00;35.75;;;;;;;;8746503;40;10546;-67
2021/07/13 10:05:04;;;;;;;;;34.75;31.50;;;;;;;;8735402;40;11156;-67
2021/07/13 10:11:06;;;;;;;;;33.25;32.25;;;;;;;;8743822;40;10517;-68
2021/07/13 10:17:09;;;;;;;;;34.75;31.25;;;;;;;;8746018;40;10516;-69
2021/07/13 10:23:12;;;;;;;;;35.25;30.50;;;;;;;;8738886;40;10693;-67
2021/07/13 10:29:32;;;;;;;;;29.75;29.50;;;;;;;;8744259;40;10618;-68
2021/07/13 10:35:34;;;;;;;;;33.00;30.00;;;;;;;;8742261;40;10785;-68
2021/07/13 10:41:36;;;;;;;;;33.50;32.50;;;;;;;;8744350;40;10429;-68
2021/07/13 10:47:55;;;;;;;;;40.00;37.00;;;;;;;;8746667;40;10352;-68
2021/07/13 10:54:06;;;;;;;;;34.50;34.25;;;;;;;;8743845;40;10510;-69
2021/07/13 11:00:09;;;;;;;;;35.75;34.75;;;;;;;;8746946;40;10558;-70
2021/07/13 11:06:12;;;;;;;;;38.75;35.00;;;;;;;;8745849;40;10401;-65
2021/07/13 11:12:16;;;;;;;;;34.50;34.00;;;;;;;;8746341;40;10479;-66
2021/07/13 11:18:29;;;;;;;;;32.75;30.25;;;;;;;;8737211;40;10475;-66
2021/07/13 11:24:31;;;;;;;;;38.00;32.00;;;;;;;;8748144;40;11120;-65
2021/07/13 11:30:33;;;;;;;;;33.00;32.75;;;;;;;;8747235;40;11095;-67
2021/07/13 11:36:42;;;;;;;;;32.25;32.25;;;;;;;;8746970;40;10474;-66
2021/07/13 11:42:59;;;;;;;;;34.75;32.00;;;;;;;;8747688;40;10471;-66
2021/07/13 11:49:12;;;;;;;;;37.50;33.25;;;;;;;;8746727;40;10517;-66
2021/07/13 11:55:23;;;;;;;;;34.50;34.50;;;;;;;;8738319;40;10692;-66
2021/07/13 12:01:27;;;;;;;;;27.25;27.25;;;;;;;;8738137;40;10463;-68
2021/07/13 12:07:30;;;;;;;;;29.25;28.50;;;;;;;;8738637;40;10576;-68
2021/07/13 12:13:32;;;;;;;;;28.00;26.00;;;;;;;;8737858;40;11076;-67
2021/07/13 12:19:35;;;;;;;;;28.50;28.50;;;;;;;;8737112;40;10562;-66
2021/07/13 12:25:37;;;;;;;;;30.50;28.00;;;;;;;;8738633;40;10573;-67
2021/07/13 12:31:44;;;;;;;;;24.25;22.75;;;;;;;;8735982;40;10491;-66
2021/07/13 12:37:48;;;;;;;;;28.75;26.75;;;;;;;;8740211;40;10469;-65
2021/07/13 12:43:50;;;;;;;;;21.25;21.25;;;;;;;;8734904;40;10492;-67
2021/07/13 12:50:14;;;;;;;;;27.75;26.00;;;;;;;;8731061;40;10466;-67
2021/07/13 12:56:17;;;;;;;;;24.25;23.75;;;;;;;;8741418;40;10444;-68
2021/07/13 13:02:19;;;;;;;;;27.25;26.50;;;;;;;;8734847;40;10561;-67
2021/07/13 13:08:42;;;;;;;;;27.25;26.75;;;;;;;;8735235;40;10555;-66
2021/07/13 13:14:45;;;;;;;;;28.00;26.75;;;;;;;;8741461;40;10484;-67
2021/07/13 13:20:47;;;;;;;;;29.50;29.50;;;;;;;;8737922;40;10989;-67
2021/07/13 13:26:49;;;;;;;;;26.00;25.50;;;;;;;;8747214;40;10641;-66
2021/07/13 13:32:51;;;;;;;;;27.50;26.25;;;;;;;;8743764;40;10562;-68
2021/07/13 13:45:02;;;;;;;;;26.25;26.25;;;;;;;;8748678;40;10512;-66
2021/07/13 13:51:05;;;;;;;;;26.00;25.75;;;;;;;;8771906;40;10546;-68
2021/07/13 13:57:09;;;;;;;;;24.00;23.75;;;;;;;;8755799;40;10467;-67
2021/07/13 14:03:11;;;;;;;;;29.25;25.75;;;;;;;;8748356;40;10487;-66
2021/07/13 14:09:14;;;;;;;;;24.00;23.75;;;;;;;;8747122;40;10493;-70
2021/07/13 14:15:16;;;;;;;;;22.50;20.50;;;;;;;;8746821;40;10547;-69
2021/07/13 14:21:18;;;;;;;;;25.25;25.00;;;;;;;;8748577;40;10489;-69
2021/07/13 14:27:20;;;;;;;;;25.75;24.75;;;;;;;;8748879;40;10467;-70
2021/07/13 14:33:25;;;;;;;;;27.50;25.25;;;;;;;;8749144;40;10476;-69
2021/07/13 14:39:27;;;;;;;;;21.25;21.25;;;;;;;;8751165;40;11296;-70
2021/07/13 14:45:29;;;;;;;;;25.25;24.50;;;;;;;;8752590;40;10412;-70
2021/07/13 14:51:31;;;;;;;;;25.25;23.50;;;;;;;;8753560;40;10533;-69
2021/07/13 14:57:33;;;;;;;;;25.50;22.50;;;;;;;;8751214;40;10504;-69
2021/07/13 15:03:35;;;;;;;;;25.25;21.75;;;;;;;;8748273;40;10513;-70
2021/07/13 15:09:37;;;;;;;;;20.00;19.00;;;;;;;;8750374;40;10500;-69
2021/07/13 15:15:41;;;;;;;;;20.50;19.75;;;;;;;;8751397;40;10502;-72
2021/07/13 15:21:43;;;;;;;;;21.00;21.00;;;;;;;;8753850;40;10723;-69
2021/07/13 15:27:46;;;;;;;;;22.75;21.75;;;;;;;;8752848;40;10511;-69
2021/07/13 15:33:48;;;;;;;;;22.50;21.00;;;;;;;;8752925;40;11024;-69
2021/07/13 15:39:49;;;;;;;;;19.00;19.00;;;;;;;;8751639;40;10557;-69
2021/07/13 15:45:52;;;;;;;;;25.00;25.00;;;;;;;;8752566;40;11070;-70
2021/07/13 15:51:56;;;;;;;;;31.00;25.25;;;;;;;;8751990;40;10421;-69
2021/07/13 15:57:58;;;;;;;;;24.75;23.75;;;;;;;;8752247;40;10393;-68
2021/07/13 16:04:00;;;;;;;;;26.50;26.50;;;;;;;;8751206;40;10490;-70
2021/07/13 16:10:06;;;;;;;;;25.00;24.00;;;;;;;;8751810;40;10437;-68
2021/07/13 16:16:08;;;;;;;;;22.50;22.50;;;;;;;;8751203;40;10497;-70
2021/07/13 16:22:10;;;;;;;;;30.75;26.00;;;;;;;;8752026;40;10536;-70
2021/07/13 16:28:15;;;;;;;;;24.50;22.75;;;;;;;;8750906;40;10489;-68
2021/07/13 16:34:17;;;;;;;;;22.50;21.75;;;;;;;;8751640;40;11113;-68
2021/07/13 16:40:19;;;;;;;;;26.25;24.00;;;;;;;;8751021;40;10452;-68
2021/07/13 16:46:23;;;;;;;;;21.25;20.75;;;;;;;;8752565;40;10446;-68
2021/07/13 16:52:25;;;;;;;;;25.25;24.00;;;;;;;;8751833;40;10684;-69
2021/07/13 16:58:47;;;;;;;;;27.75;27.50;;;;;;;;8749301;40;10532;-70
2021/07/13 17:04:49;;;;;;;;;27.75;26.75;;;;;;;;8750849;40;10486;-69
2021/07/13 17:10:51;;;;;;;;;32.00;31.00;;;;;;;;8751047;40;10568;-69
2021/07/13 17:16:54;;;;;;;;;28.00;28.00;;;;;;;;8750227;40;11006;-70
2021/07/13 17:22:59;;;;;;;;;28.25;28.00;;;;;;;;8750470;40;10490;-68
2021/07/13 17:29:01;;;;;;;;;34.75;32.50;;;;;;;;8750125;40;10527;-69
2021/07/13 17:35:04;;;;;;;;;36.50;33.75;;;;;;;;8742250;40;10482;-68
2021/07/13 17:41:06;;;;;;;;;37.25;35.00;;;;;;;;8750161;40;10456;-69
2021/07/13 17:47:09;;;;;;;;;36.50;32.75;;;;;;;;8749011;40;10535;-69
2021/07/13 17:53:11;;;;;;;;;37.50;36.00;;;;;;;;8740973;40;10435;-69
2021/07/13 17:59:14;;;;;;;;;41.50;36.00;;;;;;;;8749606;40;10567;-69
2021/07/13 18:05:17;;;;;;;;;38.75;36.00;;;;;;;;8749499;40;10449;-69
2021/07/13 18:11:19;;;;;;;;;32.75;30.75;;;;;;;;8749706;40;10538;-69
2021/07/13 18:17:21;;;;;;;;;36.25;33.50;;;;;;;;8753852;40;11058;-68
2021/07/13 18:23:23;;;;;;;;;35.50;32.50;;;;;;;;8753353;40;10456;-68
2021/07/13 18:29:26;;;;;;;;;41.50;38.25;;;;;;;;8755056;40;10528;-69
2021/07/13 18:35:28;;;;;;;;;44.50;37.00;;;;;;;;8754402;40;11105;-69
2021/07/13 18:41:31;;;;;;;;;33.50;32.50;;;;;;;;8752282;40;10495;-68
2021/07/13 18:47:33;;;;;;;;;37.25;36.00;;;;;;;;8754277;40;10539;-67
2021/07/13 18:53:35;;;;;;;;;34.75;34.00;;;;;;;;8753694;40;10463;-68
2021/07/13 18:59:39;;;;;;;;;38.50;35.00;;;;;;;;8752272;40;10653;-68
2021/07/13 19:05:41;;;;;;;;;33.00;32.50;;;;;;;;8753112;40;10502;-68
2021/07/13 19:11:43;;;;;;;;;36.00;32.25;;;;;;;;8752989;40;11099;-68
2021/07/13 19:17:46;;;;;;;;;35.25;33.00;;;;;;;;8753408;40;10486;-68
2021/07/13 19:23:48;;;;;;;;;45.00;38.00;;;;;;;;8753108;40;11246;-68
2021/07/13 19:29:50;;;;;;;;;36.75;34.25;;;;;;;;8752080;40;10601;-68
2021/07/13 19:42:15;;;;;;;;;41.75;38.25;;;;;;;;8750863;40;10722;-67
2021/07/13 19:48:25;;;;;;;;;42.75;39.50;;;;;;;;8752105;40;10642;-67
2021/07/13 19:54:27;;;;;;;;;37.25;34.25;;;;;;;;8751989;40;10880;-67
2021/07/13 20:00:30;;;;;;;;;35.75;32.25;;;;;;;;8751631;40;10721;-68
2021/07/13 20:06:32;;;;;;;;;36.50;33.00;;;;;;;;8752501;40;10551;-68
2021/07/13 20:12:36;;;;;;;;;39.75;35.25;;;;;;;;8751438;40;10660;-68
2021/07/13 20:18:38;;;;;;;;;36.50;35.75;;;;;;;;8751359;40;10489;-69
2021/07/13 20:24:39;;;;;;;;;31.75;29.75;;;;;;;;8752104;40;10749;-67
2021/07/13 20:30:42;;;;;;;;;38.25;33.75;;;;;;;;8751234;40;10685;-67
2021/07/13 20:36:44;;;;;;;;;37.50;36.50;;;;;;;;8750504;40;10640;-68
2021/07/13 20:42:46;;;;;;;;;39.50;34.50;;;;;;;;8741547;40;10740;-67
2021/07/13 20:49:01;;;;;;;;;41.50;38.00;;;;;;;;8751338;40;10766;-67
2021/07/13 20:55:03;;;;;;;;;41.25;39.00;;;;;;;;8751685;40;10686;-67
2021/07/13 21:01:06;;;;;;;;;44.50;39.25;;;;;;;;8750500;40;10749;-67
2021/07/13 21:07:08;;;;;;;;;33.75;32.75;;;;;;;;8750356;40;10623;-67
2021/07/13 21:13:12;;;;;;;;;44.25;38.50;;;;;;;;8749514;40;10831;-68
2021/07/13 21:19:14;;;;;;;;;38.00;34.75;;;;;;;;8750988;40;10945;-67
2021/07/13 21:25:16;;;;;;;;;37.00;33.50;;;;;;;;8750264;40;10964;-67
2021/07/13 21:31:18;;;;;;;;;35.75;33.50;;;;;;;;8750409;40;10725;-68
2021/07/13 21:37:20;;;;;;;;;38.75;34.00;;;;;;;;8751643;40;10721;-68
2021/07/13 21:43:23;;;;;;;;;37.50;36.25;;;;;;;;8749727;40;10752;-67
2021/07/13 21:49:26;;;;;;;;;39.75;34.75;;;;;;;;8750815;40;11416;-67
2021/07/13 21:55:28;;;;;;;;;39.75;35.00;;;;;;;;8750842;40;11534;-67
2021/07/13 22:01:30;;;;;;;;;36.00;34.00;;;;;;;;8749806;40;10805;-67
2021/07/13 22:07:32;;;;;;;;;50.50;40.50;;;;;;;;8750500;40;11476;-67
2021/07/13 22:13:35;;;;;;;;;37.75;37.00;;;;;;;;8750197;40;10762;-66
2021/07/13 22:19:37;;;;;;;;;42.00;37.00;;;;;;;;8750182;40;12587;-67
2021/07/13 22:25:39;;;;;;;;;44.25;40.25;;;;;;;;8750223;40;10790;-67
2021/07/13 22:31:41;;;;;;;;;37.00;35.75;;;;;;;;8749838;40;10814;-67
2021/07/13 22:37:45;;;;;;;;;38.25;34.25;;;;;;;;8740307;40;10729;-67
2021/07/13 22:43:47;;;;;;;;;42.25;37.50;;;;;;;;8749526;40;10961;-67
2021/07/13 22:49:49;;;;;;;;;38.00;34.67;;;;;;;;8749922;40;10688;-66
2021/07/13 22:55:51;;;;;;;;;44.75;38.75;;;;;;;;8749067;40;10995;-67
2021/07/13 23:01:53;;;;;;;;;39.50;35.75;;;;;;;;8742274;40;10997;-66
2021/07/13 23:07:55;;;;;;;;;45.00;38.25;;;;;;;;8752200;40;10966;-67
2021/07/13 23:13:57;;;;;;;;;46.25;38.00;;;;;;;;8752183;40;10823;-67
2021/07/13 23:20:14;;;;;;;;;44.50;38.50;;;;;;;;8751940;40;11000;-67
2021/07/13 23:26:16;;;;;;;;;44.00;37.25;;;;;;;;8752129;40;10847;-67
2021/07/13 23:32:19;;;;;;;;;42.00;39.67;;;;;;;;8751857;40;11155;-66
2021/07/13 23:38:21;;;;;;;;;41.50;38.25;;;;;;;;8752714;40;10828;-67
2021/07/13 23:44:23;;;;;;;;;46.67;39.67;;;;;;;;8751760;40;10856;-67
2021/07/13 23:50:25;;;;;;;;;48.67;40.00;;;;;;;;8751870;40;10466;-66
2021/07/13 23:56:27;;;;;;;;;47.33;37.33;;;;;;;;8751405;40;10471;-68
